Time;durP1;ratioP1;P1;durP2;ratioP2;P2;SDS_P1;SDS_P2;PMS_P1;PMS_P2;Temp;Humidity;BMP_temperature;BMP_pressure;BME280_temperature;BME280_humidity;BME280_pressure;Samples;Min_cycle;Max_cycle;Signal;HPM_P1;HPM_P2
2024/03/01 00:01:45;;;;;;;0.20;0.20;;;;;;;;;;5073168;28;20479;-67
2024/03/01 00:04:11;;;;;;;0.50;0.50;;;;;;;;;;5070628;28;20565;-67
2024/03/01 00:06:36;;;;;;;0.17;0.17;;;;;;;;;;5073007;28;20104;-67
2024/03/01 00:09:01;;;;;;;0.20;0.20;;;;;;;;;;5072941;28;20518;-67
2024/03/01 00:11:27;;;;;;;0.10;0.10;;;;;;;;;;5072765;28;20303;-67
2024/03/01 00:13:52;;;;;;;0.52;0.52;;;;;;;;;;5072817;28;20028;-67
2024/03/01 00:16:17;;;;;;;0.27;0.27;;;;;;;;;;5072842;28;20074;-67
2024/03/01 00:18:43;;;;;;;0.23;0.23;;;;;;;;;;5073089;28;20253;-67
2024/03/01 00:21:11;;;;;;;0.50;0.50;;;;;;;;;;5076904;28;20277;-67
2024/03/01 00:23:36;;;;;;;0.20;0.20;;;;;;;;;;5076745;28;20028;-67
2024/03/01 00:26:02;;;;;;;0.33;0.33;;;;;;;;;;5076587;28;20016;-67
2024/03/01 00:28:27;;;;;;;0.40;0.40;;;;;;;;;;5076855;28;20605;-67
2024/03/01 00:30:52;;;;;;;0.47;0.47;;;;;;;;;;5076757;28;20380;-67
2024/03/01 00:33:17;;;;;;;1.60;0.67;;;;;;;;;;5083902;28;20720;-67
2024/03/01 00:35:43;;;;;;;0.67;0.67;;;;;;;;;;5096661;28;20247;-67
2024/03/01 00:38:09;;;;;;;0.32;0.32;;;;;;;;;;5096900;28;20269;-67
2024/03/01 00:40:34;;;;;;;0.20;0.20;;;;;;;;;;5096594;28;20562;-67
2024/03/01 00:42:59;;;;;;;1.50;1.40;;;;;;;;;;5096381;28;20322;-67
2024/03/01 00:45:24;;;;;;;1.07;1.07;;;;;;;;;;5096496;28;20101;-67
2024/03/01 00:47:52;;;;;;;2.47;2.27;;;;;;;;;;5096105;28;20332;-67
2024/03/01 00:50:21;;;;;;;4.93;1.48;;;;;;;;;;5096423;28;20650;-67
2024/03/01 00:52:47;;;;;;;1.50;1.20;;;;;;;;;;5096321;28;20025;-67
2024/03/01 00:55:12;;;;;;;0.73;0.63;;;;;;;;;;5096238;28;20102;-67
2024/03/01 00:57:38;;;;;;;2.00;1.20;;;;;;;;;;5096539;28;20052;-67
2024/03/01 01:00:06;;;;;;;0.90;0.87;;;;;;;;;;5096182;28;20024;-67
2024/03/01 01:02:31;;;;;;;0.10;0.10;;;;;;;;;;5090181;28;20280;-67
2024/03/01 01:04:58;;;;;;;0.10;0.10;;;;;;;;;;5073605;28;20040;-67
2024/03/01 01:07:24;;;;;;;1.05;0.95;;;;;;;;;;5076028;28;20107;-67
2024/03/01 01:09:49;;;;;;;3.05;1.23;;;;;;;;;;5075915;28;20020;-67
2024/03/01 01:12:14;;;;;;;0.40;0.40;;;;;;;;;;5075689;28;20032;-67
2024/03/01 01:14:40;;;;;;;0.30;0.30;;;;;;;;;;5075684;28;20059;-67
2024/03/01 01:17:05;;;;;;;0.10;0.10;;;;;;;;;;5079709;28;20020;-67
2024/03/01 01:19:30;;;;;;;0.50;0.50;;;;;;;;;;5095797;28;20260;-67
2024/03/01 01:21:56;;;;;;;0.23;0.23;;;;;;;;;;5095668;28;20024;-67
2024/03/01 01:24:21;;;;;;;0.10;0.10;;;;;;;;;;5095636;28;20241;-67
2024/03/01 01:26:46;;;;;;;0.17;0.17;;;;;;;;;;5095697;28;20137;-67
2024/03/01 01:29:11;;;;;;;0.10;0.10;;;;;;;;;;5095709;28;20464;-67
2024/03/01 01:31:37;;;;;;;4.03;1.25;;;;;;;;;;5094436;28;21616;-67
2024/03/01 01:34:02;;;;;;;0.63;0.63;;;;;;;;;;5095867;28;20032;-67
2024/03/01 01:36:28;;;;;;;1.25;1.15;;;;;;;;;;5095580;28;20023;-67
2024/03/01 01:38:53;;;;;;;0.85;0.85;;;;;;;;;;5095814;28;20107;-66
2024/03/01 01:41:18;;;;;;;1.08;1.00;;;;;;;;;;5095409;28;20360;-66
2024/03/01 01:43:43;;;;;;;0.80;0.43;;;;;;;;;;5095681;28;20017;-66
2024/03/01 01:46:12;;;;;;;0.37;0.37;;;;;;;;;;5095088;28;20375;-66
2024/03/01 01:48:38;;;;;;;0.15;0.15;;;;;;;;;;5095355;28;20284;-66
2024/03/01 01:51:03;;;;;;;1.45;1.10;;;;;;;;;;5095273;28;20062;-66
2024/03/01 01:53:28;;;;;;;0.65;0.65;;;;;;;;;;5095182;28;20052;-66
2024/03/01 01:55:54;;;;;;;0.60;0.60;;;;;;;;;;5095144;28;20062;-66
2024/03/01 01:58:20;;;;;;;0.50;0.50;;;;;;;;;;5095119;28;20260;-66
2024/03/01 02:00:45;;;;;;;2.00;1.10;;;;;;;;;;5095320;28;20021;-66
2024/03/01 02:03:10;;;;;;;0.98;0.45;;;;;;;;;;5094682;28;20472;-66
2024/03/01 02:05:36;;;;;;;2.22;1.23;;;;;;;;;;5094770;28;20055;-66
2024/03/01 02:08:01;;;;;;;0.47;0.47;;;;;;;;;;5094899;28;20490;-66
2024/03/01 02:10:26;;;;;;;0.87;0.87;;;;;;;;;;5094892;28;20020;-66
2024/03/01 02:12:54;;;;;;;0.30;0.30;;;;;;;;;;5094985;28;20248;-66
2024/03/01 02:15:19;;;;;;;0.10;0.10;;;;;;;;;;5094729;28;20095;-66
2024/03/01 02:17:45;;;;;;;0.93;0.88;;;;;;;;;;5076441;28;20445;-66
2024/03/01 02:20:10;;;;;;;1.43;1.33;;;;;;;;;;5074442;28;20511;-66
2024/03/01 02:22:37;;;;;;;0.75;0.75;;;;;;;;;;5074570;28;20328;-66
2024/03/01 02:25:04;;;;;;;0.15;0.15;;;;;;;;;;5074353;28;20460;-66
2024/03/01 02:27:29;;;;;;;0.20;0.20;;;;;;;;;;5074529;28;20482;-66
2024/03/01 02:29:54;;;;;;;0.60;0.60;;;;;;;;;;5074172;28;20044;-66
2024/03/01 02:32:20;;;;;;;0.52;0.52;;;;;;;;;;5082057;28;20296;-66
2024/03/01 02:34:45;;;;;;;2.00;1.47;;;;;;;;;;5094427;28;20046;-66
2024/03/01 02:37:10;;;;;;;0.77;0.77;;;;;;;;;;5094387;28;20596;-66
2024/03/01 02:39:35;;;;;;;0.20;0.20;;;;;;;;;;5094396;28;20305;-66
2024/03/01 02:42:00;;;;;;;0.10;0.10;;;;;;;;;;5094023;28;20333;-66
2024/03/01 02:44:26;;;;;;;1.43;1.33;;;;;;;;;;5094413;28;20285;-66
2024/03/01 02:46:51;;;;;;;0.60;0.40;;;;;;;;;;5092429;28;20291;-66
2024/03/01 02:49:16;;;;;;;0.10;0.10;;;;;;;;;;5094494;28;20370;-66
2024/03/01 02:51:41;;;;;;;0.73;0.73;;;;;;;;;;5093775;28;20264;-66
2024/03/01 02:54:07;;;;;;;0.93;0.83;;;;;;;;;;5094147;28;20048;-66
2024/03/01 02:56:32;;;;;;;0.43;0.43;;;;;;;;;;5094235;28;20667;-66
2024/03/01 02:58:57;;;;;;;0.10;0.10;;;;;;;;;;5094169;28;20020;-66
2024/03/01 03:01:23;;;;;;;2.70;1.85;;;;;;;;;;5088818;28;20393;-66
2024/03/01 03:03:48;;;;;;;0.45;0.45;;;;;;;;;;5073676;28;20534;-66
2024/03/01 03:06:13;;;;;;;0.20;0.20;;;;;;;;;;5073634;28;20435;-66
2024/03/01 03:08:38;;;;;;;0.93;0.57;;;;;;;;;;5073611;28;20717;-66
2024/03/01 03:11:04;;;;;;;0.10;0.10;;;;;;;;;;5073686;28;20241;-66
2024/03/01 03:13:29;;;;;;;2.20;1.37;;;;;;;;;;5073630;28;20245;-66
2024/03/01 03:15:54;;;;;;;0.37;0.37;;;;;;;;;;5073428;28;20249;-66
2024/03/01 03:18:20;;;;;;;0.47;0.47;;;;;;;;;;5073415;28;20298;-66
2024/03/01 03:20:45;;;;;;;2.85;0.55;;;;;;;;;;5073656;28;20327;-66
2024/03/01 03:23:10;;;;;;;1.30;1.23;;;;;;;;;;5086195;28;20016;-66
2024/03/01 03:25:36;;;;;;;0.10;0.10;;;;;;;;;;5093650;28;20256;-66
2024/03/01 03:28:02;;;;;;;1.55;1.45;;;;;;;;;;5075386;28;20256;-66
2024/03/01 03:30:27;;;;;;;0.30;0.30;;;;;;;;;;5093470;28;20020;-66
2024/03/01 03:32:52;;;;;;;0.20;0.20;;;;;;;;;;5093170;28;20107;-66
2024/03/01 03:35:18;;;;;;;0.20;0.20;;;;;;;;;;5093510;28;20494;-66
2024/03/01 03:37:43;;;;;;;0.10;0.10;;;;;;;;;;5093649;28;20241;-66
2024/03/01 03:40:15;;;;;;;0.20;0.20;;;;;;;;;;5093499;28;20056;-66
2024/03/01 03:42:41;;;;;;;0.90;0.80;;;;;;;;;;5093572;28;20341;-66
2024/03/01 03:45:06;;;;;;;0.20;0.20;;;;;;;;;;5093411;28;20475;-66
2024/03/01 03:47:32;;;;;;;0.25;0.25;;;;;;;;;;5075587;28;20070;-66
2024/03/01 03:49:58;;;;;;;3.03;1.10;;;;;;;;;;5073312;28;20017;-66
2024/03/01 03:52:24;;;;;;;0.35;0.35;;;;;;;;;;5073124;28;20021;-66
2024/03/01 03:54:49;;;;;;;0.73;0.73;;;;;;;;;;5075258;28;20104;-66
2024/03/01 03:57:14;;;;;;;0.00;0.00;;;;;;;;;;5078258;28;20351;-66
2024/03/01 03:59:39;;;;;;;0.10;0.10;;;;;;;;;;5077297;28;20324;-67
2024/03/01 04:02:05;;;;;;;0.10;0.10;;;;;;;;;;5077038;28;20717;-67
2024/03/01 04:04:30;;;;;;;0.10;0.10;;;;;;;;;;5076999;28;20752;-67
2024/03/01 04:06:57;;;;;;;0.10;0.10;;;;;;;;;;5077270;28;20380;-67
2024/03/01 04:09:22;;;;;;;0.10;0.10;;;;;;;;;;5076861;28;20256;-67
2024/03/01 04:11:48;;;;;;;0.00;0.00;;;;;;;;;;5079194;28;20033;-67
2024/03/01 04:14:13;;;;;;;0.00;0.00;;;;;;;;;;5097075;28;20283;-67
2024/03/01 04:16:38;;;;;;;1.30;0.60;;;;;;;;;;5097326;28;20249;-67
2024/03/01 04:19:08;;;;;;;1.73;0.43;;;;;;;;;;5097033;28;20418;-67
2024/03/01 04:21:33;;;;;;;0.08;0.08;;;;;;;;;;5097157;28;20295;-67
2024/03/01 04:23:58;;;;;;;0.10;0.10;;;;;;;;;;5096944;28;20496;-67
2024/03/01 04:26:24;;;;;;;0.37;0.37;;;;;;;;;;5095050;28;20605;-67
2024/03/01 04:28:49;;;;;;;0.40;0.40;;;;;;;;;;5076563;28;20740;-67
2024/03/01 04:31:15;;;;;;;0.30;0.30;;;;;;;;;;5076770;28;20016;-67
2024/03/01 04:33:40;;;;;;;0.03;0.03;;;;;;;;;;5076697;28;20099;-67
2024/03/01 04:36:06;;;;;;;0.20;0.20;;;;;;;;;;5076311;28;20288;-67
2024/03/01 04:38:31;;;;;;;0.08;0.08;;;;;;;;;;5076606;28;20104;-67
2024/03/01 04:40:56;;;;;;;0.10;0.10;;;;;;;;;;5076300;28;20433;-67
2024/03/01 04:43:21;;;;;;;0.10;0.10;;;;;;;;;;5090528;28;20257;-67
2024/03/01 04:45:47;;;;;;;0.17;0.17;;;;;;;;;;5096436;28;20268;-67
2024/03/01 04:48:12;;;;;;;0.40;0.40;;;;;;;;;;5096735;28;20024;-67
2024/03/01 04:50:38;;;;;;;0.10;0.10;;;;;;;;;;5096494;28;20284;-67
2024/03/01 04:53:03;;;;;;;0.10;0.10;;;;;;;;;;5096269;28;20327;-67
2024/03/01 04:55:29;;;;;;;0.20;0.20;;;;;;;;;;5096341;28;20100;-67
2024/03/01 04:57:54;;;;;;;0.22;0.22;;;;;;;;;;5083396;28;20052;-67
2024/03/01 05:00:21;;;;;;;0.30;0.30;;;;;;;;;;5076000;28;20031;-67
2024/03/01 05:02:47;;;;;;;0.10;0.10;;;;;;;;;;5076091;28;20273;-67
2024/03/01 05:05:14;;;;;;;0.75;0.73;;;;;;;;;;5074706;28;20051;-67
2024/03/01 05:07:39;;;;;;;0.52;0.52;;;;;;;;;;5057350;28;20024;-68
2024/03/01 05:10:11;;;;;;;1.87;0.50;;;;;;;;;;5075967;28;20431;-67
2024/03/01 05:12:36;;;;;;;0.20;0.20;;;;;;;;;;5087942;28;20744;-67
2024/03/01 05:15:04;;;;;;;0.10;0.10;;;;;;;;;;5096232;28;20020;-67
2024/03/01 05:17:32;;;;;;;0.00;0.00;;;;;;;;;;5095848;28;20024;-67
2024/03/01 05:19:58;;;;;;;2.17;1.38;;;;;;;;;;5096249;28;20020;-66
2024/03/01 05:22:24;;;;;;;0.52;0.52;;;;;;;;;;5095791;28;20103;-66
2024/03/01 05:24:49;;;;;;;0.00;0.00;;;;;;;;;;5084068;28;20035;-66
2024/03/01 05:27:14;;;;;;;0.00;0.00;;;;;;;;;;5076482;28;20150;-66
2024/03/01 05:29:40;;;;;;;0.00;0.00;;;;;;;;;;5075438;28;20013;-66
2024/03/01 05:32:05;;;;;;;0.20;0.20;;;;;;;;;;5075708;28;20312;-66
2024/03/01 05:34:30;;;;;;;0.22;0.22;;;;;;;;;;5075578;28;20464;-66
2024/03/01 05:36:56;;;;;;;0.43;0.43;;;;;;;;;;5084137;28;20031;-75
2024/03/01 05:39:22;;;;;;;0.30;0.30;;;;;;;;;;5076943;28;20263;-66
2024/03/01 05:41:47;;;;;;;0.00;0.00;;;;;;;;;;5095419;28;20016;-66
2024/03/01 05:44:13;;;;;;;0.93;0.52;;;;;;;;;;5095640;28;20058;-66
2024/03/01 05:46:39;;;;;;;0.20;0.20;;;;;;;;;;5095658;28;20089;-67
2024/03/01 05:49:04;;;;;;;0.17;0.17;;;;;;;;;;5095598;28;20020;-67
2024/03/01 05:51:29;;;;;;;0.20;0.20;;;;;;;;;;5095278;28;20028;-67
2024/03/01 05:53:57;;;;;;;0.20;0.20;;;;;;;;;;5095247;28;20027;-66
2024/03/01 05:56:22;;;;;;;0.05;0.05;;;;;;;;;;5095447;28;20716;-66
2024/03/01 05:58:47;;;;;;;0.20;0.20;;;;;;;;;;5095047;28;20107;-66
2024/03/01 06:01:13;;;;;;;0.00;0.00;;;;;;;;;;5095048;28;20020;-66
2024/03/01 06:03:40;;;;;;;0.10;0.10;;;;;;;;;;5095111;28;20245;-66
2024/03/01 06:06:08;;;;;;;0.45;0.45;;;;;;;;;;5095006;28;20019;-66
2024/03/01 06:08:33;;;;;;;0.60;0.55;;;;;;;;;;5095164;28;20012;-66
2024/03/01 06:10:59;;;;;;;0.00;0.00;;;;;;;;;;5094966;28;20103;-66
2024/03/01 06:13:24;;;;;;;0.63;0.50;;;;;;;;;;5095025;28;20044;-66
2024/03/01 06:15:51;;;;;;;0.65;0.65;;;;;;;;;;5094687;28;20300;-67
2024/03/01 06:18:16;;;;;;;0.32;0.32;;;;;;;;;;5094568;28;20027;-67
2024/03/01 06:20:42;;;;;;;0.00;0.00;;;;;;;;;;5094741;28;20528;-66
2024/03/01 06:23:07;;;;;;;0.00;0.00;;;;;;;;;;5094877;28;20628;-67
2024/03/01 06:25:32;;;;;;;0.30;0.30;;;;;;;;;;5094636;28;20051;-67
2024/03/01 06:27:57;;;;;;;0.33;0.33;;;;;;;;;;5094711;28;20464;-67
2024/03/01 06:30:23;;;;;;;1.40;0.53;;;;;;;;;;5094522;28;20054;-66
2024/03/01 06:32:48;;;;;;;0.00;0.00;;;;;;;;;;5094437;28;20030;-67
2024/03/01 06:35:13;;;;;;;0.50;0.50;;;;;;;;;;5094434;28;20244;-66
2024/03/01 06:37:39;;;;;;;1.08;0.98;;;;;;;;;;5076207;28;20257;-66
2024/03/01 06:40:09;;;;;;;0.45;0.45;;;;;;;;;;5094598;28;20020;-67
2024/03/01 06:42:34;;;;;;;0.10;0.10;;;;;;;;;;5094141;28;20059;-66
2024/03/01 06:45:00;;;;;;;0.45;0.45;;;;;;;;;;5094227;28;20044;-67
2024/03/01 06:47:25;;;;;;;0.33;0.33;;;;;;;;;;5094177;28;20020;-67
2024/03/01 06:49:50;;;;;;;0.03;0.03;;;;;;;;;;5094393;28;20241;-66
2024/03/01 06:52:15;;;;;;;0.20;0.20;;;;;;;;;;5094193;28;20532;-66
2024/03/01 06:54:41;;;;;;;0.52;0.25;;;;;;;;;;5094098;28;20249;-67
2024/03/01 06:57:06;;;;;;;0.33;0.33;;;;;;;;;;5094105;28;20035;-66
2024/03/01 06:59:31;;;;;;;0.10;0.10;;;;;;;;;;5094207;28;20261;-67
2024/03/01 07:01:57;;;;;;;0.20;0.20;;;;;;;;;;5093901;28;20020;-66
2024/03/01 07:04:22;;;;;;;0.47;0.47;;;;;;;;;;5093668;28;20359;-67
2024/03/01 07:06:47;;;;;;;0.10;0.10;;;;;;;;;;5093968;28;20016;-67
2024/03/01 07:09:12;;;;;;;0.20;0.20;;;;;;;;;;5093833;28;20237;-66
2024/03/01 07:11:38;;;;;;;0.13;0.10;;;;;;;;;;5093801;28;20463;-66
2024/03/01 07:14:03;;;;;;;0.10;0.10;;;;;;;;;;5093741;28;20065;-66
2024/03/01 07:16:29;;;;;;;0.00;0.00;;;;;;;;;;5094034;28;20499;-67
2024/03/01 07:18:54;;;;;;;0.10;0.10;;;;;;;;;;5093730;28;20506;-77
2024/03/01 07:21:19;;;;;;;0.00;0.00;;;;;;;;;;5093652;28;20742;-71
2024/03/01 07:23:44;;;;;;;0.28;0.20;;;;;;;;;;5093573;28;20784;-70
2024/03/01 07:26:10;;;;;;;0.17;0.13;;;;;;;;;;5093633;28;20031;-71
2024/03/01 07:28:35;;;;;;;0.00;0.00;;;;;;;;;;5093048;28;20245;-71
2024/03/01 07:31:02;;;;;;;0.30;0.30;;;;;;;;;;5087042;28;20983;-71
2024/03/01 07:33:27;;;;;;;0.00;0.00;;;;;;;;;;5074303;28;20263;-71
2024/03/01 07:35:52;;;;;;;0.52;0.45;;;;;;;;;;5098901;28;20439;-70
2024/03/01 07:38:18;;;;;;;0.10;0.10;;;;;;;;;;5072569;28;20078;-71
2024/03/01 07:40:43;;;;;;;2.78;0.52;;;;;;;;;;5076384;28;20369;-71
2024/03/01 07:43:08;;;;;;;0.10;0.10;;;;;;;;;;5080064;28;20493;-71
2024/03/01 07:45:34;;;;;;;0.00;0.00;;;;;;;;;;5079311;28;20258;-71
2024/03/01 07:47:59;;;;;;;0.20;0.20;;;;;;;;;;5083886;28;20137;-71
2024/03/01 07:50:24;;;;;;;0.10;0.10;;;;;;;;;;5088203;28;20103;-71
2024/03/01 07:52:49;;;;;;;0.10;0.10;;;;;;;;;;5077099;28;20021;-71
2024/03/01 07:55:15;;;;;;;0.10;0.10;;;;;;;;;;5072540;28;20248;-70
2024/03/01 07:57:40;;;;;;;0.00;0.00;;;;;;;;;;5072629;28;20070;-71
2024/03/01 08:00:06;;;;;;;0.32;0.32;;;;;;;;;;5081913;28;20110;-70
2024/03/01 08:02:32;;;;;;;0.00;0.00;;;;;;;;;;5092308;28;20468;-71
2024/03/01 08:04:57;;;;;;;0.00;0.00;;;;;;;;;;5092388;28;20047;-71
2024/03/01 08:07:22;;;;;;;0.00;0.00;;;;;;;;;;5092590;28;20023;-71
2024/03/01 08:09:48;;;;;;;0.20;0.20;;;;;;;;;;5092519;28;20016;-70
2024/03/01 08:12:14;;;;;;;0.47;0.30;;;;;;;;;;5092675;28;20016;-71
2024/03/01 08:14:39;;;;;;;0.22;0.22;;;;;;;;;;5092565;28;20103;-70
2024/03/01 08:17:05;;;;;;;0.13;0.13;;;;;;;;;;5088788;28;20111;-71
2024/03/01 08:19:38;;;;;;;0.10;0.10;;;;;;;;;;5074807;28;20024;-71
2024/03/01 08:22:10;;;;;;;0.30;0.20;;;;;;;;;;5092135;28;20107;-71
2024/03/01 08:24:40;;;;;;;0.10;0.10;;;;;;;;;;5092506;28;20031;-71
2024/03/01 08:27:06;;;;;;;0.00;0.00;;;;;;;;;;5092601;28;20024;-71
2024/03/01 08:29:35;;;;;;;0.00;0.00;;;;;;;;;;5092748;28;20081;-71
2024/03/01 08:32:00;;;;;;;0.20;0.20;;;;;;;;;;5091587;28;20028;-71
2024/03/01 08:34:30;;;;;;;0.00;0.00;;;;;;;;;;5091542;28;20138;-71
2024/03/01 08:36:55;;;;;;;0.00;0.00;;;;;;;;;;5077957;28;20021;-71
2024/03/01 08:39:24;;;;;;;0.20;0.20;;;;;;;;;;5080724;28;20393;-71
2024/03/01 08:41:51;;;;;;;0.10;0.10;;;;;;;;;;5092969;28;20837;-71
2024/03/01 08:44:42;;;;;;;0.00;0.00;;;;;;;;;;5088791;28;20016;-71
2024/03/01 08:47:14;;;;;;;0.00;0.00;;;;;;;;;;5041959;28;20536;-70
2024/03/01 08:49:42;;;;;;;0.10;0.10;;;;;;;;;;5075732;28;20024;-66
2024/03/01 08:52:18;;;;;;;0.00;0.00;;;;;;;;;;5075428;28;20024;-64
2024/03/01 08:54:43;;;;;;;0.00;0.00;;;;;;;;;;5074891;28;20040;-65
2024/03/01 08:57:22;;;;;;;0.00;0.00;;;;;;;;;;5075592;28;20108;-64
2024/03/01 08:59:49;;;;;;;0.10;0.10;;;;;;;;;;5082891;28;20686;-64
2024/03/01 09:02:23;;;;;;;0.00;0.00;;;;;;;;;;5084226;28;20016;-64
2024/03/01 09:04:48;;;;;;;0.00;0.00;;;;;;;;;;5083773;28;20068;-64
2024/03/01 09:07:15;;;;;;;0.53;0.53;;;;;;;;;;5086758;28;20097;-64
2024/03/01 09:09:41;;;;;;;0.10;0.10;;;;;;;;;;5095529;28;20314;-64
2024/03/01 09:12:21;;;;;;;0.00;0.00;;;;;;;;;;5081684;28;20048;-64
2024/03/01 09:14:47;;;;;;;0.17;0.17;;;;;;;;;;5089566;28;20023;-66
2024/03/01 09:17:13;;;;;;;0.00;0.00;;;;;;;;;;5082969;28;20023;-64
2024/03/01 09:19:40;;;;;;;0.10;0.10;;;;;;;;;;5088793;28;20024;-64
2024/03/01 09:22:05;;;;;;;0.00;0.00;;;;;;;;;;5075122;28;20429;-64
2024/03/01 09:24:33;;;;;;;0.10;0.10;;;;;;;;;;5086996;28;20111;-64
2024/03/01 09:27:01;;;;;;;0.00;0.00;;;;;;;;;;5095076;28;20016;-64
2024/03/01 09:29:32;;;;;;;12.38;1.40;;;;;;;;;;5095329;28;20028;-64
2024/03/01 09:31:58;;;;;;;0.10;0.10;;;;;;;;;;5092029;28;20031;-64
2024/03/01 09:34:25;;;;;;;0.03;0.03;;;;;;;;;;5074413;28;20024;-65
2024/03/01 09:36:51;;;;;;;0.13;0.13;;;;;;;;;;5085842;28;20102;-65
2024/03/01 09:39:16;;;;;;;0.00;0.00;;;;;;;;;;5082054;28;20417;-64
2024/03/01 09:41:55;;;;;;;0.37;0.37;;;;;;;;;;5091837;28;20500;-64
2024/03/01 09:44:34;;;;;;;0.00;0.00;;;;;;;;;;5074161;28;20261;-64
2024/03/01 09:47:05;;;;;;;0.35;0.35;;;;;;;;;;5085579;28;20480;-64
2024/03/01 09:49:30;;;;;;;0.20;0.20;;;;;;;;;;5094648;28;20031;-64
2024/03/01 09:52:14;;;;;;;0.00;0.00;;;;;;;;;;5093794;28;20020;-64
2024/03/01 09:54:39;;;;;;;0.00;0.00;;;;;;;;;;5090282;28;20073;-64
2024/03/01 09:57:09;;;;;;;0.00;0.00;;;;;;;;;;5074360;28;20021;-64
2024/03/01 09:59:37;;;;;;;0.10;0.10;;;;;;;;;;5074132;28;20082;-64
2024/03/01 10:02:15;;;;;;;0.00;0.00;;;;;;;;;;5074342;28;20017;-64
2024/03/01 10:05:07;;;;;;;0.00;0.00;;;;;;;;;;5074207;28;20048;-64
2024/03/01 10:07:32;;;;;;;;;;;;;;;;;;5074499;28;20017;-64
2024/03/01 10:09:58;;;;;;;0.00;0.00;;;;;;;;;;5073793;28;19905;-64
2024/03/01 10:12:41;;;;;;;0.20;0.20;;;;;;;;;;5083848;28;20099;-64
2024/03/01 10:15:25;;;;;;;0.00;0.00;;;;;;;;;;5093316;28;20027;-64
2024/03/01 10:17:56;;;;;;;0.00;0.00;;;;;;;;;;5093508;28;20032;-64
2024/03/01 10:20:31;;;;;;;0.08;0.05;;;;;;;;;;5094031;28;20494;-64
2024/03/01 10:23:04;;;;;;;0.10;0.10;;;;;;;;;;5094088;28;20495;-64
2024/03/01 10:25:51;;;;;;;0.08;0.08;;;;;;;;;;5094159;28;20020;-64
2024/03/01 10:28:16;;;;;;;0.10;0.10;;;;;;;;;;5094347;28;20499;-64
2024/03/01 10:30:46;;;;;;;0.00;0.00;;;;;;;;;;5093359;28;20051;-65
2024/03/01 10:33:19;;;;;;;1.17;0.10;;;;;;;;;;5093791;28;20031;-64
2024/03/01 10:35:50;;;;;;;0.00;0.00;;;;;;;;;;5093808;28;20056;-64
2024/03/01 10:38:15;;;;;;;0.10;0.10;;;;;;;;;;5075757;28;20106;-64
2024/03/01 10:40:47;;;;;;;0.10;0.10;;;;;;;;;;5094034;28;20421;-65
2024/03/01 10:43:24;;;;;;;0.10;0.10;;;;;;;;;;5093890;28;20043;-64
2024/03/01 10:45:52;;;;;;;0.08;0.08;;;;;;;;;;5088747;28;20025;-64
2024/03/01 10:48:17;;;;;;;0.00;0.00;;;;;;;;;;5073373;28;20024;-64
2024/03/01 10:50:51;;;;;;;0.00;0.00;;;;;;;;;;5073306;28;20024;-64
2024/03/01 10:53:18;;;;;;;0.00;0.00;;;;;;;;;;5073521;28;20024;-64
2024/03/01 10:55:57;;;;;;;0.00;0.00;;;;;;;;;;5073208;28;20074;-64
2024/03/01 10:58:25;;;;;;;0.00;0.00;;;;;;;;;;5073181;28;20021;-64
2024/03/01 11:00:55;;;;;;;0.00;0.00;;;;;;;;;;5072720;28;20047;-64
2024/03/01 11:03:40;;;;;;;0.00;0.00;;;;;;;;;;5073041;28;20488;-64
2024/03/01 11:06:18;;;;;;;0.03;0.03;;;;;;;;;;5073072;28;20515;-64
2024/03/01 11:08:52;;;;;;;0.05;0.05;;;;;;;;;;5073056;28;20306;-70
2024/03/01 11:11:22;;;;;;;0.00;0.00;;;;;;;;;;5073052;28;20017;-71
2024/03/01 11:13:49;;;;;;;0.05;0.05;;;;;;;;;;5072430;28;20413;-71
2024/03/01 11:16:17;;;;;;;0.03;0.03;;;;;;;;;;5078481;28;20012;-70
2024/03/01 11:18:45;;;;;;;0.00;0.00;;;;;;;;;;5093648;28;20019;-70
2024/03/01 11:21:13;;;;;;;0.10;0.10;;;;;;;;;;5087042;28;20020;-71
2024/03/01 11:24:05;;;;;;;0.10;0.10;;;;;;;;;;5082404;28;20020;-71
2024/03/01 11:26:43;;;;;;;0.00;0.00;;;;;;;;;;5075559;28;20037;-70
2024/03/01 11:29:12;;;;;;;0.00;0.00;;;;;;;;;;5074035;28;20455;-69
2024/03/01 11:31:40;;;;;;;0.10;0.10;;;;;;;;;;5079596;28;20055;-71
2024/03/01 11:34:09;;;;;;;0.00;0.00;;;;;;;;;;5072212;28;20107;-71
2024/03/01 11:36:34;;;;;;;0.00;0.00;;;;;;;;;;5071854;28;20063;-71
2024/03/01 11:39:20;;;;;;;0.00;0.00;;;;;;;;;;5073504;28;20060;-71
2024/03/01 11:41:45;;;;;;;0.00;0.00;;;;;;;;;;5049943;28;20455;-71
2024/03/01 11:44:19;;;;;;;0.10;0.10;;;;;;;;;;5071568;28;20016;-71
2024/03/01 11:46:47;;;;;;;0.20;0.10;;;;;;;;;;5076708;28;20024;-71
2024/03/01 11:49:13;;;;;;;0.00;0.00;;;;;;;;;;5072499;28;20492;-70
2024/03/01 11:51:41;;;;;;;0.03;0.03;;;;;;;;;;5072255;28;20029;-71
2024/03/01 11:54:29;;;;;;;0.10;0.10;;;;;;;;;;5072512;28;20028;-71
2024/03/01 11:56:55;;;;;;;0.17;0.17;;;;;;;;;;5071841;28;20057;-68
2024/03/01 11:59:33;;;;;;;2.13;0.63;;;;;;;;;;5072550;28;20059;-71
2024/03/01 12:02:01;;;;;;;0.00;0.00;;;;;;;;;;5072409;28;20032;-71
2024/03/01 12:04:26;;;;;;;0.00;0.00;;;;;;;;;;5089337;28;20084;-71
2024/03/01 12:07:06;;;;;;;0.00;0.00;;;;;;;;;;5078417;28;20051;-71
2024/03/01 12:09:34;;;;;;;0.00;0.00;;;;;;;;;;5073310;28;20099;-71
2024/03/01 12:12:19;;;;;;;0.00;0.00;;;;;;;;;;5071598;28;20021;-71
2024/03/01 12:14:53;;;;;;;0.00;0.00;;;;;;;;;;5071931;28;20028;-71
2024/03/01 12:17:45;;;;;;;0.00;0.00;;;;;;;;;;5075940;28;20027;-70
2024/03/01 12:20:13;;;;;;;0.08;0.08;;;;;;;;;;5037229;28;20051;-71
2024/03/01 12:22:46;;;;;;;0.00;0.00;;;;;;;;;;5095645;28;20534;-71
2024/03/01 12:25:11;;;;;;;0.00;0.00;;;;;;;;;;5095778;28;20012;-71
2024/03/01 12:27:38;;;;;;;0.00;0.00;;;;;;;;;;5075355;28;20373;-70
2024/03/01 12:30:13;;;;;;;0.00;0.00;;;;;;;;;;5088785;28;20020;-71
2024/03/01 12:32:38;;;;;;;0.00;0.00;;;;;;;;;;5085410;28;20477;-71
2024/03/01 12:35:22;;;;;;;0.00;0.00;;;;;;;;;;5075826;28;20028;-71
2024/03/01 12:38:06;;;;;;;0.00;0.00;;;;;;;;;;5075705;28;20024;-71
2024/03/01 12:40:37;;;;;;;0.00;0.00;;;;;;;;;;5081576;28;20023;-71
2024/03/01 12:43:08;;;;;;;0.20;0.20;;;;;;;;;;5083293;28;20458;-71
2024/03/01 12:45:52;;;;;;;0.00;0.00;;;;;;;;;;5075466;28;20027;-71
2024/03/01 12:48:23;;;;;;;0.00;0.00;;;;;;;;;;5085253;28;20017;-71
2024/03/01 12:50:54;;;;;;;0.00;0.00;;;;;;;;;;5075476;28;20016;-71
2024/03/01 12:53:27;;;;;;;0.00;0.00;;;;;;;;;;5057581;28;20468;-70
2024/03/01 12:55:57;;;;;;;0.00;0.00;;;;;;;;;;5075760;28;20380;-71
2024/03/01 12:58:29;;;;;;;0.00;0.00;;;;;;;;;;5074717;28;20024;-71
2024/03/01 13:00:57;;;;;;;0.00;0.00;;;;;;;;;;5075430;28;20020;-71
2024/03/01 13:03:36;;;;;;;0.10;0.10;;;;;;;;;;5074889;28;20039;-70
2024/03/01 13:06:01;;;;;;;0.00;0.00;;;;;;;;;;5074667;28;20550;-71
2024/03/01 13:08:29;;;;;;;0.00;0.00;;;;;;;;;;5084043;28;20024;-71
2024/03/01 13:10:57;;;;;;;0.03;0.03;;;;;;;;;;5074718;28;20151;-71
2024/03/01 13:13:25;;;;;;;0.25;0.22;;;;;;;;;;5074204;28;20078;-71
2024/03/01 13:15:52;;;;;;;0.00;0.00;;;;;;;;;;5074915;28;20024;-71
2024/03/01 13:18:20;;;;;;;0.00;0.00;;;;;;;;;;5075296;28;20081;-70
2024/03/01 13:20:52;;;;;;;0.00;0.00;;;;;;;;;;5075030;28;20453;-71
2024/03/01 13:23:23;;;;;;;0.00;0.00;;;;;;;;;;5074975;28;20020;-70
2024/03/01 13:25:55;;;;;;;0.00;0.00;;;;;;;;;;5074425;28;20528;-70
2024/03/01 13:28:26;;;;;;;0.00;0.00;;;;;;;;;;5073993;28;20055;-71
2024/03/01 13:30:56;;;;;;;0.00;0.00;;;;;;;;;;5087954;28;20472;-71
2024/03/01 13:33:46;;;;;;;0.05;0.05;;;;;;;;;;5092892;28;20020;-70
2024/03/01 13:36:13;;;;;;;0.00;0.00;;;;;;;;;;5075037;28;20427;-71
2024/03/01 13:38:43;;;;;;;0.00;0.00;;;;;;;;;;5082055;28;20123;-71
2024/03/01 13:41:16;;;;;;;0.00;0.00;;;;;;;;;;5073982;28;20032;-71
2024/03/01 13:43:45;;;;;;;0.00;0.00;;;;;;;;;;5074377;28;20016;-71
2024/03/01 13:46:15;;;;;;;0.13;0.13;;;;;;;;;;5074455;28;20056;-71
2024/03/01 13:48:41;;;;;;;0.13;0.13;;;;;;;;;;5056389;28;20085;-71
2024/03/01 13:51:06;;;;;;;0.00;0.00;;;;;;;;;;5074457;28;20103;-71
2024/03/01 13:53:32;;;;;;;0.00;0.00;;;;;;;;;;5074507;28;20028;-71
2024/03/01 13:55:57;;;;;;;0.00;0.00;;;;;;;;;;5080943;28;20076;-71
2024/03/01 13:58:28;;;;;;;0.00;0.00;;;;;;;;;;5074161;28;20361;-70
2024/03/01 14:00:53;;;;;;;0.08;0.08;;;;;;;;;;5092738;28;20048;-71
2024/03/01 14:03:18;;;;;;;0.00;0.00;;;;;;;;;;5093987;28;20100;-70
2024/03/01 14:05:44;;;;;;;0.00;0.00;;;;;;;;;;5077748;28;20516;-69
2024/03/01 14:08:10;;;;;;;0.00;0.00;;;;;;;;;;5083828;28;20502;-68
2024/03/01 14:10:40;;;;;;;0.10;0.10;;;;;;;;;;5089782;28;20047;-68
2024/03/01 14:13:07;;;;;;;0.00;0.00;;;;;;;;;;5055774;28;20493;-69
2024/03/01 14:15:33;;;;;;;0.00;0.00;;;;;;;;;;5073975;28;20073;-69
2024/03/01 14:17:58;;;;;;;0.43;0.43;;;;;;;;;;5073983;28;20404;-69
2024/03/01 14:20:23;;;;;;;0.00;0.00;;;;;;;;;;5073578;28;20672;-68
2024/03/01 14:22:55;;;;;;;0.00;0.00;;;;;;;;;;5088948;28;20039;-69
2024/03/01 14:25:22;;;;;;;0.00;0.00;;;;;;;;;;5073220;28;20027;-68
2024/03/01 14:27:51;;;;;;;0.00;0.00;;;;;;;;;;5073845;28;20426;-69
2024/03/01 14:30:18;;;;;;;0.00;0.00;;;;;;;;;;5073760;28;20020;-68
2024/03/01 14:32:43;;;;;;;0.10;0.10;;;;;;;;;;5073868;28;20520;-68
2024/03/01 14:35:29;;;;;;;0.00;0.00;;;;;;;;;;5073535;28;20123;-68
2024/03/01 14:37:54;;;;;;;0.32;0.32;;;;;;;;;;5073335;28;20029;-63
2024/03/01 14:40:21;;;;;;;0.00;0.00;;;;;;;;;;5091219;28;20081;-64
2024/03/01 14:42:57;;;;;;;0.00;0.00;;;;;;;;;;5078887;28;20089;-63
2024/03/01 14:45:22;;;;;;;0.00;0.00;;;;;;;;;;5073507;28;20071;-64
2024/03/01 14:47:59;;;;;;;0.00;0.00;;;;;;;;;;5073379;28;20476;-63